createdAt,value
2023-02-14T00:01:44.409Z,6.13
2023-02-14T00:04:12.881Z,5.27
2023-02-14T00:06:42.207Z,4.90
2023-02-14T00:09:15.161Z,4.30
2023-02-14T00:11:44.437Z,4.77
2023-02-14T00:14:31.813Z,4.70
2023-02-14T00:17:01.720Z,6.70
2023-02-14T00:19:31.493Z,7.60
2023-02-14T00:21:59.900Z,5.37
2023-02-14T00:24:28.453Z,5.20
2023-02-14T00:26:56.574Z,4.33
2023-02-14T00:29:27.987Z,5.07
2023-02-14T00:31:56.228Z,4.87
2023-02-14T00:34:27.206Z,7.00
2023-02-14T00:36:55.375Z,7.17
2023-02-14T00:39:23.635Z,6.27
2023-02-14T00:41:51.854Z,7.50
2023-02-14T00:44:20.038Z,7.30
2023-02-14T00:46:48.267Z,8.13
2023-02-14T00:49:16.780Z,8.83
2023-02-14T00:51:46.392Z,10.23
2023-02-14T00:54:14.766Z,7.97
2023-02-14T00:56:43.025Z,9.50
2023-02-14T00:59:11.228Z,8.10
2023-02-14T01:01:39.917Z,11.80
2023-02-14T01:04:08.732Z,9.47
2023-02-14T01:06:37.353Z,12.90
2023-02-14T01:09:06.954Z,10.97
2023-02-14T01:11:35.311Z,11.43
2023-02-14T01:14:03.910Z,10.57
2023-02-14T01:16:32.546Z,10.93
2023-02-14T01:19:02.168Z,13.27
2023-02-14T01:21:33.992Z,13.43
2023-02-14T01:24:04.646Z,10.27
2023-02-14T01:26:35.901Z,9.13
2023-02-14T01:29:05.636Z,7.00
2023-02-14T01:31:36.362Z,8.80
2023-02-14T01:34:05.166Z,10.73
2023-02-14T01:36:37.816Z,10.20
2023-02-14T01:39:09.949Z,10.30
2023-02-14T01:41:42.443Z,9.20
2023-02-14T01:44:58.310Z,9.10
2023-02-14T01:47:29.732Z,9.73
2023-02-14T01:50:03.986Z,8.53
2023-02-14T01:52:38.963Z,6.27
2023-02-14T01:55:16.294Z,9.03
2023-02-14T01:57:51.127Z,12.63
2023-02-14T02:00:39.624Z,9.03
2023-02-14T02:03:09.896Z,8.07
2023-02-14T02:05:45.804Z,10.10
2023-02-14T02:08:14.677Z,7.23
2023-02-14T02:10:42.920Z,10.13
2023-02-14T02:13:19.705Z,6.80
2023-02-14T02:16:04.165Z,7.03
2023-02-14T02:18:46.816Z,8.03
2023-02-14T02:21:58.423Z,6.77
2023-02-14T02:24:40.298Z,6.00
2023-02-14T02:27:29.796Z,6.70
2023-02-14T02:30:44.755Z,6.60
2023-02-14T02:34:02.393Z,7.00
2023-02-14T02:36:52.720Z,5.47
2023-02-14T02:39:38.934Z,7.77
2023-02-14T02:42:17.397Z,5.60
2023-02-14T02:44:58.122Z,8.13
2023-02-14T02:47:34.981Z,7.70
2023-02-14T02:50:36.883Z,7.23
2023-02-14T02:53:17.666Z,6.87
2023-02-14T02:56:10.946Z,5.83
2023-02-14T02:58:46.262Z,7.53
2023-02-14T03:01:21.762Z,5.43
2023-02-14T03:04:17.042Z,6.00
2023-02-14T03:06:45.923Z,7.10
2023-02-14T03:10:00.252Z,6.20
2023-02-14T03:13:19.174Z,7.33
2023-02-14T03:16:24.847Z,6.20
2023-02-14T03:19:34.855Z,7.47
2023-02-14T03:22:19.245Z,7.70
2023-02-14T03:24:57.155Z,7.63
2023-02-14T03:27:33.690Z,10.43
2023-02-14T03:30:15.692Z,7.87
2023-02-14T03:32:52.024Z,6.60
2023-02-14T03:35:27.185Z,7.87
2023-02-14T03:38:04.913Z,6.50
2023-02-14T03:40:38.916Z,6.13
2023-02-14T03:43:13.236Z,6.70
2023-02-14T03:45:51.509Z,6.30
2023-02-14T03:48:24.802Z,7.13
2023-02-14T03:50:54.937Z,7.60
2023-02-14T03:53:27.542Z,7.10
2023-02-14T03:56:03.996Z,6.03
2023-02-14T03:58:39.954Z,9.83
2023-02-14T04:01:15.730Z,7.60
2023-02-14T04:03:45.631Z,7.77
2023-02-14T04:06:13.881Z,6.67
2023-02-14T04:08:42.011Z,8.77
2023-02-14T04:11:10.217Z,6.37
2023-02-14T04:13:40.304Z,7.73
2023-02-14T04:16:09.578Z,8.53
2023-02-14T04:18:55.138Z,7.60
2023-02-14T04:21:23.318Z,9.30
2023-02-14T04:23:51.502Z,5.50
2023-02-14T04:26:19.673Z,6.67
2023-02-14T04:28:49.178Z,5.50
2023-02-14T04:31:17.440Z,9.00
2023-02-14T04:33:46.116Z,6.20
2023-02-14T04:36:14.602Z,7.50
2023-02-14T04:38:42.734Z,7.57
2023-02-14T04:41:10.945Z,6.33
2023-02-14T04:43:39.096Z,6.90
2023-02-14T04:46:08.639Z,5.53
2023-02-14T04:48:36.772Z,11.23
2023-02-14T04:51:06.748Z,8.17
2023-02-14T04:53:40.073Z,5.67
2023-02-14T04:56:09.146Z,6.30
2023-02-14T04:58:37.446Z,8.30
2023-02-14T05:01:05.693Z,7.40
2023-02-14T05:03:35.293Z,6.53
2023-02-14T05:06:03.456Z,5.07
2023-02-14T05:08:31.658Z,8.43
2023-02-14T05:11:00.059Z,6.47
2023-02-14T05:13:28.540Z,8.13
2023-02-14T05:15:56.842Z,8.30
2023-02-14T05:18:25.285Z,6.33
2023-02-14T05:20:56.149Z,7.53
2023-02-14T05:23:24.496Z,7.33
2023-02-14T05:25:53.615Z,7.27
2023-02-14T05:28:22.031Z,7.80
2023-02-14T05:30:52.501Z,7.13
2023-02-14T05:33:22.700Z,6.23
2023-02-14T05:35:50.978Z,7.37
2023-02-14T05:38:20.958Z,6.40
2023-02-14T05:40:49.203Z,7.10
2023-02-14T05:43:17.407Z,8.27
2023-02-14T05:45:45.911Z,6.83
2023-02-14T05:48:14.398Z,6.47
2023-02-14T05:50:45.533Z,7.77
2023-02-14T05:53:17.087Z,7.57
2023-02-14T05:55:46.854Z,7.83
2023-02-14T05:58:15.582Z,7.63
2023-02-14T06:00:44.401Z,8.50
2023-02-14T06:03:12.749Z,7.47
2023-02-14T06:05:41.301Z,7.30
2023-02-14T06:08:09.531Z,7.67
2023-02-14T06:10:37.679Z,8.67
2023-02-14T06:13:08.774Z,6.80
2023-02-14T06:15:37.558Z,5.77
2023-02-14T06:18:07.063Z,6.73
2023-02-14T06:20:36.036Z,6.27
2023-02-14T06:23:04.881Z,6.53
2023-02-14T06:25:33.434Z,6.80
2023-02-14T06:28:01.941Z,7.03
2023-02-14T06:30:31.857Z,5.77
2023-02-14T06:33:00.254Z,5.67
2023-02-14T06:35:28.502Z,7.20
2023-02-14T06:37:56.765Z,8.97
2023-02-14T06:40:25.228Z,8.93
2023-02-14T06:42:53.808Z,10.83
2023-02-14T06:45:22.093Z,4.80
2023-02-14T06:47:51.754Z,9.70
2023-02-14T06:50:20.189Z,9.57
2023-02-14T06:52:48.449Z,10.47
2023-02-14T06:55:16.956Z,9.03
2023-02-14T06:57:47.134Z,7.40
2023-02-14T07:00:16.349Z,6.33
2023-02-14T07:02:44.623Z,6.43
2023-02-14T07:05:15.225Z,6.47
2023-02-14T07:07:43.322Z,9.70
2023-02-14T07:10:12.532Z,7.23
2023-02-14T07:12:40.806Z,7.97
2023-02-14T07:15:11.924Z,6.73
2023-02-14T07:17:40.685Z,5.17
2023-02-14T07:20:11.069Z,8.30
2023-02-14T07:22:41.056Z,8.30
2023-02-14T07:25:09.808Z,6.30
2023-02-14T07:27:38.447Z,8.43
2023-02-14T07:30:09.247Z,7.27
2023-02-14T07:32:39.134Z,7.67
2023-02-14T07:35:08.722Z,8.63
2023-02-14T07:37:37.306Z,7.67
2023-02-14T07:40:14.597Z,6.70
2023-02-14T07:42:44.780Z,9.07
2023-02-14T07:45:21.747Z,9.60
2023-02-14T07:47:52.424Z,9.70
2023-02-14T07:50:21.645Z,8.67
2023-02-14T07:52:50.137Z,7.00
2023-02-14T07:55:20.287Z,8.17
2023-02-14T07:57:49.378Z,8.53
2023-02-14T08:00:19.150Z,7.17
2023-02-14T08:02:47.440Z,8.77
2023-02-14T08:05:15.829Z,7.50
2023-02-14T08:07:44.293Z,7.87
2023-02-14T08:10:13.220Z,8.43
2023-02-14T08:12:56.904Z,11.90
2023-02-14T08:15:42.795Z,6.90
2023-02-14T08:18:11.032Z,8.77
2023-02-14T08:20:39.250Z,9.23
2023-02-14T08:23:07.666Z,11.07
2023-02-14T08:25:35.944Z,7.73
2023-02-14T08:28:06.196Z,9.23
2023-02-14T08:30:36.962Z,9.00
2023-02-14T08:33:05.434Z,6.63
2023-02-14T08:35:34.134Z,9.47
2023-02-14T08:38:02.634Z,10.07
2023-02-14T08:40:31.322Z,9.33
2023-02-14T08:42:59.561Z,7.77
2023-02-14T08:45:29.260Z,9.47
2023-02-14T08:48:03.051Z,13.10
2023-02-14T08:50:31.540Z,9.00
2023-02-14T08:53:00.167Z,10.50
2023-02-14T08:55:28.790Z,13.60
2023-02-14T08:57:58.138Z,8.37
2023-02-14T09:00:28.353Z,9.90
2023-02-14T09:02:56.729Z,6.57
2023-02-14T09:05:25.081Z,7.07
2023-02-14T09:07:53.670Z,8.17
2023-02-14T09:10:22.117Z,8.17
2023-02-14T09:12:50.491Z,8.73
2023-02-14T09:15:19.076Z,10.07
2023-02-14T09:17:50.983Z,8.73
2023-02-14T09:20:19.278Z,12.33
2023-02-14T09:22:48.909Z,8.20
2023-02-14T09:25:17.657Z,11.03
2023-02-14T09:27:45.832Z,7.87
2023-02-14T09:30:15.736Z,8.93
2023-02-14T09:32:44.044Z,8.70
2023-02-14T09:35:13.738Z,6.97
2023-02-14T09:37:41.554Z,9.73
2023-02-14T09:40:14.590Z,8.77
2023-02-14T09:42:55.285Z,8.70
2023-02-14T09:45:27.607Z,8.23
2023-02-14T09:48:01.903Z,12.47
2023-02-14T09:50:37.710Z,9.20
2023-02-14T09:53:19.589Z,9.30
2023-02-14T09:56:00.939Z,9.38
2023-02-14T09:58:36.847Z,10.53
2023-02-14T10:01:20.221Z,8.40
2023-02-14T10:04:19.107Z,9.10
2023-02-14T10:06:54.789Z,6.95
2023-02-14T10:09:47.086Z,9.90
2023-02-14T10:12:23.842Z,8.30
2023-02-14T10:14:56.335Z,7.88
2023-02-14T10:17:39.925Z,8.13
2023-02-14T10:20:21.902Z,9.05
2023-02-14T10:23:04.382Z,8.80
2023-02-14T10:25:43.729Z,9.48
2023-02-14T10:28:16.890Z,11.18
2023-02-14T10:30:58.726Z,6.32
2023-02-14T10:33:33.264Z,7.72
2023-02-14T10:36:09.652Z,7.18
2023-02-14T10:38:47.540Z,6.57
2023-02-14T10:41:38.735Z,7.68
2023-02-14T10:44:28.458Z,9.27
2023-02-14T10:47:05.535Z,5.78
2023-02-14T10:49:47.754Z,6.80
2023-02-14T10:52:25.399Z,7.97
2023-02-14T10:54:59.004Z,8.45
2023-02-14T10:57:33.131Z,7.78
2023-02-14T11:00:10.909Z,6.28
2023-02-14T11:02:43.829Z,10.13
2023-02-14T11:05:26.946Z,8.98
2023-02-14T11:07:56.384Z,7.65
2023-02-14T11:10:30.968Z,6.47
2023-02-14T11:12:59.672Z,6.93
2023-02-14T11:15:33.306Z,6.70
2023-02-14T11:18:23.242Z,8.48
2023-02-14T11:21:06.535Z,6.97
2023-02-14T11:23:38.983Z,11.65
2023-02-14T11:26:17.668Z,9.98
2023-02-14T11:28:57.349Z,7.72
2023-02-14T11:31:33.243Z,7.43
2023-02-14T11:34:06.274Z,7.80
2023-02-14T11:36:43.054Z,7.53
2023-02-14T11:39:30.408Z,7.18
2023-02-14T11:42:04.103Z,9.25
2023-02-14T11:44:37.275Z,9.30
2023-02-14T11:47:25.652Z,7.50
2023-02-14T11:50:01.042Z,7.95
2023-02-14T11:52:31.417Z,8.60
2023-02-14T11:55:00.513Z,9.25
2023-02-14T11:57:35.201Z,6.88
2023-02-14T12:00:15.647Z,7.05
2023-02-14T12:02:47.523Z,6.90
2023-02-14T12:05:22.533Z,10.23
2023-02-14T12:07:53.749Z,9.77
2023-02-14T12:10:27.741Z,7.32
2023-02-14T12:13:23.596Z,8.40
2023-02-14T12:15:55.832Z,5.38
2023-02-14T12:18:47.455Z,7.70
2023-02-14T12:21:37.751Z,6.97
2023-02-14T12:24:19.040Z,8.57
2023-02-14T12:27:01.817Z,7.68
2023-02-14T12:29:38.615Z,8.38
2023-02-14T12:32:21.508Z,8.07
2023-02-14T12:34:51.588Z,7.78
2023-02-14T12:37:40.676Z,5.97
2023-02-14T12:40:21.341Z,7.50
2023-02-14T12:43:17.915Z,8.25
2023-02-14T12:46:19.208Z,7.68
2023-02-14T12:49:09.324Z,10.20
2023-02-14T12:51:50.455Z,8.20
2023-02-14T12:54:44.284Z,10.02
2023-02-14T12:57:30.544Z,7.72
2023-02-14T13:00:17.668Z,9.10
2023-02-14T13:03:34.663Z,10.05
2023-02-14T13:06:13.278Z,9.50
2023-02-14T13:09:14.635Z,8.63
2023-02-14T13:12:01.477Z,8.13
2023-02-14T13:14:53.451Z,8.38
2023-02-14T13:17:34.656Z,9.23
2023-02-14T13:20:25.862Z,9.02
2023-02-14T13:22:58.422Z,9.30
2023-02-14T13:25:33.561Z,9.35
2023-02-14T13:28:06.065Z,9.82
2023-02-14T13:30:36.988Z,10.15
2023-02-14T13:33:15.943Z,10.15
2023-02-14T13:35:46.157Z,10.20
2023-02-14T13:38:18.486Z,8.60
2023-02-14T13:40:54.035Z,11.02
2023-02-14T13:43:58.692Z,10.35
2023-02-14T13:46:53.217Z,10.90
2023-02-14T13:50:13.431Z,9.93
2023-02-14T13:52:55.619Z,7.65
2023-02-14T13:55:35.482Z,9.73
2023-02-14T13:58:06.742Z,10.95
2023-02-14T14:00:42.230Z,8.30
2023-02-14T14:03:59.342Z,10.48
2023-02-14T14:06:28.256Z,10.85
2023-02-14T14:15:34.464Z,9.60
2023-02-14T14:43:33.735Z,9.45
2023-02-14T14:46:05.106Z,13.15
2023-02-14T14:48:39.044Z,12.38
2023-02-14T14:51:09.765Z,10.80
2023-02-14T14:53:45.306Z,9.00
2023-02-14T14:56:15.137Z,11.52
2023-02-14T14:58:44.699Z,10.18
2023-02-14T15:01:21.445Z,9.88
2023-02-14T15:03:49.867Z,8.73
2023-02-14T15:06:21.251Z,10.75
2023-02-14T15:08:51.403Z,9.50
2023-02-14T15:11:42.828Z,10.05
2023-02-14T15:14:20.242Z,10.15
2023-02-14T15:16:52.095Z,10.00
2023-02-14T15:19:31.378Z,10.35
2023-02-14T15:21:59.855Z,9.80
2023-02-14T15:24:30.444Z,10.32
2023-02-14T15:26:59.051Z,9.20
2023-02-14T15:29:31.707Z,10.57
2023-02-14T15:32:03.459Z,10.13
2023-02-14T15:34:35.966Z,12.55
2023-02-14T15:37:06.605Z,8.77
2023-02-14T15:39:41.442Z,10.60
2023-02-14T15:42:25.782Z,9.68
2023-02-14T15:45:23.773Z,10.15
2023-02-14T15:47:54.768Z,9.30
2023-02-14T15:50:27.683Z,7.95
2023-02-14T15:53:03.561Z,10.52
2023-02-14T15:55:33.447Z,9.98
2023-02-14T15:58:05.724Z,11.70
2023-02-14T16:00:36.723Z,10.55
2023-02-14T16:03:09.984Z,8.90
2023-02-14T16:05:38.667Z,9.90
2023-02-14T16:08:24.058Z,11.18
2023-02-14T16:11:02.974Z,10.18
2023-02-14T16:13:34.945Z,10.07
2023-02-14T16:16:08.138Z,10.05
2023-02-14T16:18:40.250Z,10.60
2023-02-14T16:21:19.168Z,10.70
2023-02-14T16:24:10.633Z,10.90
2023-02-14T16:26:40.984Z,8.77
2023-02-14T16:29:13.080Z,14.07
2023-02-14T16:32:06.198Z,8.27
2023-02-14T16:34:35.870Z,11.65
2023-02-14T16:37:09.490Z,11.48
2023-02-14T16:39:40.685Z,9.98
2023-02-14T16:42:17.591Z,9.50
2023-02-14T16:44:46.331Z,9.80
2023-02-14T16:47:19.001Z,10.68
2023-02-14T16:49:47.522Z,9.75
2023-02-14T16:52:23.472Z,9.35
2023-02-14T16:54:52.142Z,9.57
2023-02-14T16:57:25.851Z,9.15
2023-02-14T16:59:56.794Z,9.90
2023-02-14T17:02:28.244Z,10.88
2023-02-14T17:05:02.528Z,9.57
2023-02-14T17:07:34.041Z,10.30
2023-02-14T17:10:08.522Z,11.02
2023-02-14T17:12:41.437Z,8.50
2023-02-14T17:15:16.443Z,8.50
2023-02-14T17:17:48.456Z,10.35
2023-02-14T17:20:19.444Z,10.10
2023-02-14T17:22:48.042Z,9.88
2023-02-14T17:25:16.310Z,9.80
2023-02-14T17:27:46.191Z,10.48
2023-02-14T17:30:16.480Z,11.20
2023-02-14T17:32:46.355Z,12.63
2023-02-14T17:35:14.591Z,9.75
2023-02-14T17:37:43.696Z,8.18
2023-02-14T17:40:14.498Z,13.52
2023-02-14T17:42:43.118Z,15.10
2023-02-14T17:45:12.673Z,9.93
2023-02-14T17:47:43.204Z,10.27
2023-02-14T17:50:14.588Z,11.05
2023-02-14T17:52:43.273Z,10.30
2023-02-14T17:55:12.253Z,11.07
2023-02-14T17:57:41.488Z,8.63
2023-02-14T18:00:12.181Z,9.00
2023-02-14T18:02:43.274Z,9.93
2023-02-14T18:05:13.255Z,11.82
2023-02-14T18:07:41.543Z,11.70
2023-02-14T18:10:10.513Z,9.05
2023-02-14T18:12:38.871Z,9.52
2023-02-14T18:15:07.853Z,10.73
2023-02-14T18:17:36.133Z,11.05
2023-02-14T18:20:05.313Z,10.07
2023-02-14T18:22:34.878Z,10.13
2023-02-14T18:25:03.030Z,13.80
2023-02-14T18:27:32.287Z,11.02
2023-02-14T18:30:00.594Z,14.35
2023-02-14T18:32:28.861Z,10.52
2023-02-14T18:34:57.082Z,10.35
2023-02-14T18:37:25.354Z,15.13
2023-02-14T18:39:54.925Z,12.27
2023-02-14T18:42:23.274Z,10.57
2023-02-14T18:44:51.370Z,12.05
2023-02-14T18:47:19.609Z,11.38
2023-02-14T18:49:48.003Z,12.00
2023-02-14T18:52:21.264Z,11.15
2023-02-14T18:54:49.630Z,20.13
2023-02-14T18:57:19.276Z,12.43
2023-02-14T18:59:47.437Z,10.07
2023-02-14T19:02:15.713Z,10.37
2023-02-14T19:04:44.042Z,12.05
2023-02-14T19:07:12.881Z,13.03
2023-02-14T19:09:43.100Z,17.77
2023-02-14T19:12:11.897Z,19.55
2023-02-14T19:14:41.654Z,21.23
2023-02-14T19:17:09.950Z,16.10
2023-02-14T19:19:42.956Z,12.27
2023-02-14T19:22:19.150Z,15.47
2023-02-14T19:24:55.816Z,12.37
2023-02-14T19:27:41.863Z,9.70
2023-02-14T19:30:33.438Z,12.03
2023-02-14T19:33:02.246Z,9.77
2023-02-14T19:35:32.686Z,17.97
2023-02-14T19:38:04.498Z,14.30
2023-02-14T19:40:52.817Z,17.87
2023-02-14T19:43:30.469Z,15.03
2023-02-14T19:46:09.315Z,11.50
2023-02-14T19:48:38.294Z,12.30
2023-02-14T19:51:14.176Z,10.30
2023-02-14T19:56:40.274Z,10.63
2023-02-14T19:59:22.685Z,10.30
2023-02-14T20:02:00.866Z,12.80
2023-02-14T20:04:45.914Z,10.23
2023-02-14T20:07:19.632Z,14.53
2023-02-14T20:09:50.341Z,10.00
2023-02-14T20:12:30.471Z,10.40
2023-02-14T20:15:02.688Z,11.30
2023-02-14T20:17:38.393Z,10.80
2023-02-14T20:20:26.601Z,13.00
2023-02-14T20:23:10.692Z,12.20
2023-02-14T20:25:42.594Z,11.50
2023-02-14T20:28:10.628Z,12.77
2023-02-14T20:30:40.126Z,11.53
2023-02-14T20:33:09.603Z,13.70
2023-02-14T20:35:40.675Z,12.77
2023-02-14T20:38:08.926Z,13.70
2023-02-14T20:40:40.010Z,13.13
2023-02-14T20:43:08.093Z,14.33
2023-02-14T20:45:36.187Z,11.40
2023-02-14T20:48:06.803Z,12.07
2023-02-14T20:50:36.307Z,12.07
2023-02-14T20:53:04.423Z,11.90
2023-02-14T20:55:32.463Z,10.40
2023-02-14T20:58:02.364Z,15.33
2023-02-14T21:00:30.726Z,10.90
2023-02-14T21:02:59.940Z,14.03
2023-02-14T21:05:28.731Z,9.67
2023-02-14T21:07:58.346Z,11.23
2023-02-14T21:10:27.523Z,10.83
2023-02-14T21:12:55.924Z,15.67
2023-02-14T21:15:24.007Z,10.23
2023-02-14T21:17:52.062Z,14.57
2023-02-14T21:20:20.501Z,9.20
2023-02-14T21:22:48.558Z,10.57
2023-02-14T21:25:18.118Z,8.30
2023-02-14T21:27:46.424Z,13.50
2023-02-14T21:30:15.378Z,11.07
2023-02-14T21:32:43.486Z,11.30
2023-02-14T21:35:11.534Z,13.70
2023-02-14T21:37:39.623Z,13.27
2023-02-14T21:40:09.261Z,12.17
2023-02-14T21:42:38.681Z,12.80
2023-02-14T21:45:25.132Z,11.53
2023-02-14T21:48:07.225Z,14.43
2023-02-14T21:50:35.276Z,11.63
2023-02-14T21:53:03.367Z,10.77
2023-02-14T21:55:31.380Z,10.40
2023-02-14T21:58:00.924Z,11.10
2023-02-14T22:00:28.991Z,13.77
2023-02-14T22:02:57.261Z,12.10
2023-02-14T22:05:26.637Z,14.50
2023-02-14T22:07:54.715Z,13.60
2023-02-14T22:10:22.781Z,14.33
2023-02-14T22:12:50.817Z,12.63
2023-02-14T22:15:20.274Z,12.63
2023-02-14T22:17:48.314Z,19.87
2023-02-14T22:20:16.700Z,12.27
2023-02-14T22:22:44.727Z,13.80
2023-02-14T22:25:12.829Z,18.53
2023-02-14T22:27:41.231Z,18.87
2023-02-14T22:30:10.209Z,19.27
2023-02-14T22:32:39.708Z,14.63
2023-02-14T22:35:08.933Z,12.17
2023-02-14T22:37:36.953Z,13.90
2023-02-14T22:40:06.152Z,12.90
2023-02-14T22:42:34.281Z,13.33
2023-02-14T22:45:02.345Z,12.20
2023-02-14T22:47:32.082Z,15.53
2023-02-14T22:50:01.673Z,13.97
2023-02-14T22:52:29.782Z,12.10
2023-02-14T22:54:57.958Z,13.27
2023-02-14T22:57:26.120Z,11.77
2023-02-14T22:59:54.298Z,19.70
2023-02-14T23:02:22.374Z,16.13
2023-02-14T23:04:51.619Z,12.13
2023-02-14T23:07:21.032Z,16.33
2023-02-14T23:09:50.754Z,15.80
2023-02-14T23:12:32.781Z,14.53
2023-02-14T23:15:18.529Z,16.33
2023-02-14T23:18:04.532Z,11.13
2023-02-14T23:20:50.230Z,13.67
2023-02-14T23:23:19.638Z,13.03
2023-02-14T23:25:47.706Z,12.30
2023-02-14T23:28:15.750Z,13.63
2023-02-14T23:30:43.771Z,10.00
2023-02-14T23:33:11.837Z,11.23
2023-02-14T23:35:39.862Z,12.30
2023-02-14T23:38:08.066Z,13.63
2023-02-14T23:40:51.386Z,13.43
2023-02-14T23:43:19.476Z,16.73
2023-02-14T23:45:47.675Z,16.50
2023-02-14T23:48:15.804Z,11.30
2023-02-14T23:50:43.860Z,16.57
2023-02-14T23:53:11.941Z,13.53
2023-02-14T23:55:41.275Z,12.23
2023-02-14T23:58:09.313Z,9.27
